Time;durP1;ratioP1;P1;durP2;ratioP2;P2;SDS_P1;SDS_P2;PMS_P1;PMS_P2;Temp;Humidity;BMP_temperature;BMP_pressure;BME280_temperature;BME280_humidity;BME280_pressure;Samples;Min_cycle;Max_cycle;Signal;HPM_P1;HPM_P2
2023/01/12 00:02:54;;;;;;;;;;;;;;;-11.94;48.99;99556.28;6279064;28;19924;-67
2023/01/12 00:05:58;;;;;;;;;;;;;;;-12.04;49.42;99553.88;6296203;28;20407;-67
2023/01/12 00:09:05;;;;;;;;;;;;;;;-12.17;49.13;99543.69;6296077;28;20424;-67
2023/01/12 00:12:08;;;;;;;;;;;;;;;-12.10;49.37;99539.13;6296201;28;19955;-68
2023/01/12 00:15:09;;;;;;;;;;;;;;;-12.10;49.57;99543.34;6296083;28;19924;-67
2023/01/12 00:18:10;;;;;;;;;;;;;;;-12.03;49.48;99545.47;6295308;28;19925;-67
2023/01/12 00:21:12;;;;;;;;;;;;;;;-12.21;49.45;99540.94;6295776;28;19924;-67
2023/01/12 00:24:13;;;;;;;;;;;;;;;-12.33;49.63;99550.28;6295264;28;19929;-66
2023/01/12 00:27:18;;;;;;;;;;;;;;;-12.32;49.79;99552.03;6295137;28;19963;-67
2023/01/12 00:30:21;;;;;;;;;;;;;;;-12.48;50.02;99556.81;6295912;28;20329;-67
2023/01/12 00:33:25;;;;;;;;;;;;;;;-12.43;49.85;99552.97;6295172;28;19975;-67
2023/01/12 00:36:25;;;;;;;;;;;;;;;-12.13;49.34;99549.09;6277636;28;19920;-67
2023/01/12 00:39:27;;;;;;;;;;;;;;;-12.15;49.26;99554.81;6295675;28;19931;-67
2023/01/12 00:45:50;;;;;;;;;;;;;;;-12.25;49.48;99533.91;6295700;28;19928;-67
2023/01/12 00:48:51;;;;;;;;;;;;;;;-12.24;49.95;99535.66;6295539;28;20413;-67
2023/01/12 00:51:54;;;;;;;;;;;;;;;-12.36;50.24;99523.81;6295472;28;19931;-67
2023/01/12 00:54:58;;;;;;;;;;;;;;;-12.43;50.07;99522.50;6277537;28;19947;-67
2023/01/12 00:58:02;;;;;;;;;;;;;;;-12.60;50.21;99520.50;6295535;28;19932;-67
2023/01/12 01:01:07;;;;;;;;;;;;;;;-12.72;50.85;99518.88;6300099;28;19931;-67
2023/01/12 01:04:12;;;;;;;;;;;;;;;-12.59;50.79;99502.84;6299975;28;19928;-67
2023/01/12 01:07:17;;;;;;;;;;;;;;;-12.52;50.77;99509.22;6299995;28;20382;-67
2023/01/12 01:10:18;;;;;;;;;;;;;;;-12.49;50.59;99506.88;6300030;28;19931;-67
2023/01/12 01:13:21;;;;;;;;;;;;;;;-12.44;51.00;99505.53;6299882;28;19924;-67
2023/01/12 01:16:22;;;;;;;;;;;;;;;-12.21;50.64;99495.25;6299493;28;20412;-68
2023/01/12 01:19:26;;;;;;;;;;;;;;;-12.23;50.55;99490.88;6299705;28;19928;-67
2023/01/12 01:22:27;;;;;;;;;;;;;;;-11.89;50.28;99482.94;6299156;28;19924;-67
2023/01/12 01:25:28;;;;;;;;;;;;;;;-11.78;50.27;99481.94;6299891;28;20401;-67
2023/01/12 01:28:32;;;;;;;;;;;;;;;-11.74;50.04;99483.03;6299580;28;19931;-67
2023/01/12 01:31:34;;;;;;;;;;;;;;;-11.72;50.27;99487.41;6298448;28;19925;-66
2023/01/12 01:34:38;;;;;;;;;;;;;;;-11.73;50.11;99495.81;6299245;28;19928;-67
2023/01/12 01:37:38;;;;;;;;;;;;;;;-11.85;50.19;99500.97;6299357;28;19931;-66
2023/01/12 01:40:42;;;;;;;;;;;;;;;-11.68;49.79;99503.75;6299151;28;19924;-67
2023/01/12 01:43:47;;;;;;;;;;;;;;;-11.65;49.59;99503.94;6299100;28;19924;-67
2023/01/12 01:47:11;;;;;;;;;;;;;;;-11.70;49.60;99502.75;6298341;28;20262;-67
2023/01/12 01:50:21;;;;;;;;;;;;;;;-11.84;49.83;99512.88;6299182;28;20407;-67
2023/01/12 01:53:26;;;;;;;;;;;;;;;-11.93;50.25;99529.22;6298444;28;19924;-67
2023/01/12 01:56:30;;;;;;;;;;;;;;;-11.88;49.99;99526.22;6298794;28;20340;-67
2023/01/12 01:59:35;;;;;;;;;;;;;;;-11.85;50.15;99526.38;6298642;28;19928;-67
2023/01/12 02:02:41;;;;;;;;;;;;;;;-12.06;50.01;99524.97;6298713;28;20332;-67
2023/01/12 02:05:47;;;;;;;;;;;;;;;-12.18;50.63;99519.09;6297798;28;19925;-66
2023/01/12 02:08:59;;;;;;;;;;;;;;;-12.08;51.09;99526.56;6298556;28;19925;-68
2023/01/12 02:18:44;;;;;;;;;;;;;;;-12.13;51.24;99523.69;6298366;28;20385;-68
2023/01/12 02:21:54;;;;;;;;;;;;;;;-12.21;51.53;99518.09;6298281;28;19931;-68
2023/01/12 02:25:15;;;;;;;;;;;;;;;-12.04;51.56;99519.22;6297278;28;19931;-67
2023/01/12 02:28:35;;;;;;;;;;;;;;;-12.11;51.29;99501.84;6298190;28;19982;-67
2023/01/12 02:31:42;;;;;;;;;;;;;;;-12.03;51.60;99489.63;6298167;28;20341;-67
2023/01/12 02:34:49;;;;;;;;;;;;;;;-11.85;52.24;99484.91;6298052;28;19924;-67
2023/01/12 02:38:11;;;;;;;;;;;;;;;-11.77;51.84;99484.59;6297782;28;19924;-67
2023/01/12 02:41:12;;;;;;;;;;;;;;;-11.61;51.74;99480.47;6297107;28;19931;-67
2023/01/12 02:44:26;;;;;;;;;;;;;;;-11.58;51.68;99465.41;6297672;28;20321;-68
2023/01/12 02:47:46;;;;;;;;;;;;;;;-11.57;51.45;99472.28;6279322;28;19924;-67
2023/01/12 02:50:52;;;;;;;;;;;;;;;-11.32;51.10;99462.00;6296409;28;19928;-67
2023/01/12 02:54:05;;;;;;;;;;;;;;;-11.25;50.70;99470.88;6297608;28;19924;-67
2023/01/12 02:57:12;;;;;;;;;;;;;;;-11.21;50.61;99467.72;6297026;28;20353;-67
2023/01/12 03:00:17;;;;;;;;;;;;;;;-11.23;50.56;99469.31;6297172;28;19974;-67
2023/01/12 03:03:18;;;;;;;;;;;;;;;-11.27;50.57;99458.06;6296139;28;19963;-67
2023/01/12 03:06:21;;;;;;;;;;;;;;;-11.16;50.50;99466.38;6295103;28;19994;-67
2023/01/12 03:09:31;;;;;;;;;;;;;;;-11.20;50.43;99464.44;6296847;28;19931;-67
2023/01/12 03:12:35;;;;;;;;;;;;;;;-11.15;50.08;99463.94;6296678;28;19924;-68
2023/01/12 03:15:40;;;;;;;;;;;;;;;-10.97;49.97;99487.06;6296532;28;19920;-67
2023/01/12 03:18:49;;;;;;;;;;;;;;;-11.00;49.88;99469.06;6296526;28;19931;-68
2023/01/12 03:21:52;;;;;;;;;;;;;;;-10.85;49.44;99477.63;6277951;28;19928;-67
2023/01/12 03:24:57;;;;;;;;;;;;;;;-10.85;49.39;99480.16;6296657;28;20301;-66
2023/01/12 03:28:03;;;;;;;;;;;;;;;-10.86;49.19;99503.84;6296304;28;19924;-67
2023/01/12 03:31:09;;;;;;;;;;;;;;;-10.88;49.26;99487.63;6295577;28;20378;-68
2023/01/12 03:34:11;;;;;;;;;;;;;;;-10.82;49.29;99494.72;6296114;28;20018;-67
2023/01/12 03:37:31;;;;;;;;;;;;;;;-10.78;49.36;99495.78;6295322;28;20283;-67
2023/01/12 03:40:40;;;;;;;;;;;;;;;-10.74;48.87;99488.44;6295177;28;19924;-67
2023/01/12 03:43:53;;;;;;;;;;;;;;;-10.69;48.90;99491.28;6296089;28;19924;-67
2023/01/12 03:46:57;;;;;;;;;;;;;;;-10.70;49.34;99489.50;6296294;28;19931;-68
2023/01/12 03:50:06;;;;;;;;;;;;;;;-10.64;49.11;99505.16;6296159;28;20065;-67
2023/01/12 03:53:12;;;;;;;;;;;;;;;-10.69;49.36;99504.00;6296204;28;19932;-67
2023/01/12 03:56:15;;;;;;;;;;;;;;;-10.67;49.75;99479.50;6295748;28;20328;-66
2023/01/12 03:59:19;;;;;;;;;;;;;;;-10.74;49.72;99492.66;6295987;28;19924;-67
2023/01/12 04:02:20;;;;;;;;;;;;;;;-10.69;50.00;99491.28;6294479;28;19924;-67
2023/01/12 04:05:21;;;;;;;;;;;;;;;-10.64;49.73;99479.72;6295590;28;19931;-67
2023/01/12 04:08:24;;;;;;;;;;;;;;;-10.47;49.81;99480.75;6295859;28;19925;-68
2023/01/12 04:14:50;;;;;;;;;;;;;;;-10.09;48.57;99472.75;6295415;28;19931;-67
2023/01/12 04:17:51;;;;;;;;;;;;;;;-10.20;48.48;99481.44;6277018;28;19924;-67
2023/01/12 04:20:55;;;;;;;;;;;;;;;-10.14;48.53;99466.50;6295448;28;19924;-67
2023/01/12 04:23:59;;;;;;;;;;;;;;;-10.25;48.65;99449.72;6295586;28;19924;-67
2023/01/12 04:27:02;;;;;;;;;;;;;;;-10.16;48.38;99455.38;6295674;28;19925;-68
2023/01/12 04:30:03;;;;;;;;;;;;;;;-10.09;48.00;99488.03;6294738;28;19978;-67
2023/01/12 04:33:08;;;;;;;;;;;;;;;-9.88;47.28;99456.94;6295492;28;19929;-67
2023/01/12 04:36:10;;;;;;;;;;;;;;;-9.82;46.90;99426.72;6300741;28;19925;-69
2023/01/12 04:39:13;;;;;;;;;;;;;;;-9.96;46.98;99436.16;6300527;28;19924;-67
2023/01/12 04:45:38;;;;;;;;;;;;;;;-10.00;47.39;99442.72;6281729;28;20034;-67
2023/01/12 04:48:42;;;;;;;;;;;;;;;-10.07;47.44;99445.72;6300484;28;20023;-67
2023/01/12 04:51:44;;;;;;;;;;;;;;;-10.01;47.20;99456.25;6300544;28;19924;-67
2023/01/12 04:54:45;;;;;;;;;;;;;;;-10.17;47.67;99445.97;6300243;28;20390;-67
2023/01/12 04:57:46;;;;;;;;;;;;;;;-10.00;47.55;99442.72;6300152;28;20065;-67
2023/01/12 05:00:50;;;;;;;;;;;;;;;-9.94;46.71;99437.97;6299987;28;19931;-67
2023/01/12 05:03:56;;;;;;;;;;;;;;;-9.68;46.15;99450.44;6299955;28;19925;-68
2023/01/12 05:07:00;;;;;;;;;;;;;;;-9.88;46.44;99457.81;6299719;28;20314;-67
2023/01/12 05:10:21;;;;;;;;;;;;;;;-9.78;46.67;99443.94;6299661;28;20015;-68
2023/01/12 05:13:25;;;;;;;;;;;;;;;-9.67;46.42;99462.41;6299786;28;19975;-67
2023/01/12 05:16:31;;;;;;;;;;;;;;;-9.74;46.72;99463.69;6299755;28;19960;-68
2023/01/12 05:19:32;;;;;;;;;;;;;;;-9.89;47.00;99475.56;6298769;28;20023;-68
2023/01/12 05:22:35;;;;;;;;;;;;;;;-9.88;46.96;99479.88;6299558;28;19924;-68
2023/01/12 05:25:36;;;;;;;;;;;;;;;-9.84;47.06;99486.91;6298682;28;20427;-67
2023/01/12 05:28:37;;;;;;;;;;;;;;;-9.74;46.80;99486.63;6299471;28;19946;-67
2023/01/12 05:31:39;;;;;;;;;;;;;;;-9.79;47.08;99488.06;6298449;28;20317;-69
2023/01/12 05:34:42;;;;;;;;;;;;;;;-9.81;47.08;99480.31;6298619;28;19931;-68
2023/01/12 05:37:48;;;;;;;;;;;;;;;-9.72;47.00;99485.06;6299402;28;19924;-68
2023/01/12 05:40:49;;;;;;;;;;;;;;;-9.64;46.88;99483.81;6299116;28;19950;-68
2023/01/12 05:43:53;;;;;;;;;;;;;;;-9.74;47.01;99491.72;6299188;28;19924;-68
2023/01/12 05:46:55;;;;;;;;;;;;;;;-9.67;46.98;99486.19;6297447;28;19928;-67
2023/01/12 05:49:58;;;;;;;;;;;;;;;-9.64;46.77;99473.63;6298940;28;20382;-67
2023/01/12 05:52:59;;;;;;;;;;;;;;;-9.59;46.60;99472.22;6298953;28;20027;-68
2023/01/12 05:56:08;;;;;;;;;;;;;;;-9.60;46.64;99460.25;6298701;28;20007;-67
2023/01/12 05:59:12;;;;;;;;;;;;;;;-9.73;47.13;99462.94;6298934;28;19925;-68
2023/01/12 06:02:16;;;;;;;;;;;;;;;-9.59;46.93;99468.81;6298740;28;19924;-67
2023/01/12 06:05:24;;;;;;;;;;;;;;;-9.68;47.49;99451.34;6298570;28;19925;-68
2023/01/12 06:08:30;;;;;;;;;;;;;;;-9.55;47.34;99451.19;6298448;28;19932;-68
2023/01/12 06:14:55;;;;;;;;;;;;;;;-9.61;46.55;99448.31;6298476;28;20019;-66
2023/01/12 06:17:56;;;;;;;;;;;;;;;-9.58;46.58;99443.38;6297453;28;19925;-67
2023/01/12 06:20:59;;;;;;;;;;;;;;;-9.67;46.68;99440.34;6297704;28;19925;-68
2023/01/12 06:24:03;;;;;;;;;;;;;;;-9.61;46.81;99442.34;6279766;28;19924;-68
2023/01/12 06:27:06;;;;;;;;;;;;;;;-9.63;46.43;99437.16;6298096;28;19924;-68
2023/01/12 06:30:08;;;;;;;;;;;;;;;-9.55;45.82;99420.63;6297067;28;19925;-68
2023/01/12 06:33:09;;;;;;;;;;;;;;;-9.68;46.14;99420.75;6297314;28;19927;-68
2023/01/12 06:36:12;;;;;;;;;;;;;;;-9.76;46.13;99401.59;6297690;28;19924;-67
2023/01/12 06:39:17;;;;;;;;;;;;;;;-9.87;46.18;99392.50;6297729;28;19990;-68
2023/01/12 06:42:27;;;;;;;;;;;;;;;-9.89;46.38;99384.75;6296907;28;20018;-67
2023/01/12 06:45:28;;;;;;;;;;;;;;;-9.78;46.32;99387.91;6295961;28;19924;-68
2023/01/12 06:48:34;;;;;;;;;;;;;;;-9.75;45.90;99399.13;6297470;28;19924;-68
2023/01/12 06:51:35;;;;;;;;;;;;;;;-9.64;45.73;99376.78;6297624;28;19924;-67
2023/01/12 06:54:38;;;;;;;;;;;;;;;-9.44;45.52;99384.66;6297076;28;19929;-68
2023/01/12 06:57:42;;;;;;;;;;;;;;;-9.57;45.98;99363.56;6296772;28;20421;-68
2023/01/12 07:00:43;;;;;;;;;;;;;;;-9.44;45.44;99366.81;6296664;28;19931;-67
2023/01/12 07:03:49;;;;;;;;;;;;;;;-9.53;45.49;99360.41;6296978;28;20289;-67
2023/01/12 07:06:53;;;;;;;;;;;;;;;-9.38;45.65;99369.69;6296053;28;20269;-68
2023/01/12 07:09:54;;;;;;;;;;;;;;;-9.32;45.65;99375.09;6296422;28;19928;-67
2023/01/12 07:13:00;;;;;;;;;;;;;;;-9.24;45.68;99356.00;6296476;28;19924;-68
2023/01/12 07:16:04;;;;;;;;;;;;;;;-9.22;45.48;99367.16;6296596;28;19978;-68
2023/01/12 07:19:05;;;;;;;;;;;;;;;-9.28;45.27;99366.84;6296732;28;19924;-68
2023/01/12 07:22:08;;;;;;;;;;;;;;;-9.47;46.09;99366.66;6295906;28;19924;-67
2023/01/12 07:25:12;;;;;;;;;;;;;;;-9.35;45.10;99355.41;6295977;28;19935;-67
2023/01/12 07:28:18;;;;;;;;;;;;;;;-9.36;45.32;99347.69;6296670;28;19968;-66
2023/01/12 07:31:24;;;;;;;;;;;;;;;-9.34;44.25;99356.28;6278283;28;19924;-68
2023/01/12 07:34:30;;;;;;;;;;;;;;;-9.59;44.62;99357.53;6296432;28;19970;-68
2023/01/12 07:37:30;;;;;;;;;;;;;;;-9.55;44.43;99356.91;6295674;28;19924;-68
2023/01/12 07:40:34;;;;;;;;;;;;;;;-9.55;44.00;99356.91;6278498;28;20021;-67
2023/01/12 07:43:35;;;;;;;;;;;;;;;-9.64;44.04;99376.78;6295406;28;20002;-67
2023/01/12 07:46:41;;;;;;;;;;;;;;;-9.41;43.24;99369.53;6278924;28;20409;-67
2023/01/12 07:49:47;;;;;;;;;;;;;;;-9.50;43.13;99387.75;6296198;28;19924;-67
2023/01/12 07:52:49;;;;;;;;;;;;;;;-9.57;42.14;99373.78;6295128;28;19946;-67
2023/01/12 07:55:52;;;;;;;;;;;;;;;-9.69;42.84;99383.31;6294842;28;19947;-68
2023/01/12 07:58:56;;;;;;;;;;;;;;;-9.79;42.87;99376.84;6295992;28;20423;-68
2023/01/12 08:01:57;;;;;;;;;;;;;;;-9.84;42.60;99368.06;6294545;28;19925;-68
2023/01/12 08:04:58;;;;;;;;;;;;;;;-9.97;42.56;99396.19;6295050;28;19962;-68
2023/01/12 08:08:02;;;;;;;;;;;;;;;-9.84;42.29;99388.44;6295397;28;19924;-67
2023/01/12 08:11:07;;;;;;;;;;;;;;;-9.67;41.47;99381.72;6294783;28;19924;-67
2023/01/12 08:14:17;;;;;;;;;;;;;;;-9.33;39.71;99373.38;6295998;28;19924;-67
2023/01/12 08:17:21;;;;;;;;;;;;;;;-9.47;40.44;99361.56;6294929;28;20325;-68
2023/01/12 08:20:30;;;;;;;;;;;;;;;-9.41;39.62;99344.91;6295685;28;20027;-68
2023/01/12 08:23:34;;;;;;;;;;;;;;;-9.55;40.03;99351.81;6294964;28;19924;-68
2023/01/12 08:26:38;;;;;;;;;;;;;;;-9.51;39.52;99338.44;6294776;28;20015;-67
2023/01/12 08:29:47;;;;;;;;;;;;;;;-9.37;39.41;99335.72;6294463;28;19932;-67
2023/01/12 08:32:48;;;;;;;;;;;;;;;-9.02;38.39;99318.88;6294768;28;19920;-68
2023/01/12 08:35:52;;;;;;;;;;;;;;;-8.80;38.02;99321.72;6294970;28;19924;-67
2023/01/12 08:39:00;;;;;;;;;;;;;;;-7.32;36.52;99333.00;6295587;28;19920;-67
2023/01/12 08:42:03;;;;;;;;;;;;;;;-3.46;32.00;99322.66;6293472;28;19931;-68
2023/01/12 08:45:10;;;;;;;;;;;;;;;-1.77;28.93;99327.19;6294398;28;19924;-68
2023/01/12 08:48:16;;;;;;;;;;;;;;;-3.45;29.12;99319.25;6293916;28;19924;-68
2023/01/12 08:51:17;;;;;;;;;;;;;;;-5.32;30.43;99330.94;6294094;28;20428;-68
2023/01/12 08:54:23;;;;;;;;;;;;;;;-6.61;31.68;99329.28;6295098;28;20014;-68
2023/01/12 08:57:27;;;;;;;;;;;;;;;-7.06;31.86;99336.72;6295135;28;19924;-67
2023/01/12 09:00:28;;;;;;;;;;;;;;;-7.32;32.47;99338.13;6295015;28;19924;-68
2023/01/12 09:03:31;;;;;;;;;;;;;;;-7.36;32.18;99323.47;6295247;28;19925;-68
2023/01/12 09:06:36;;;;;;;;;;;;;;;-7.11;31.96;99327.09;6295173;28;20259;-67
2023/01/12 09:09:37;;;;;;;;;;;;;;;-7.13;31.55;99355.19;6294019;28;19920;-67
2023/01/12 09:12:39;;;;;;;;;;;;;;;-7.61;31.42;99335.91;6294295;28;19927;-67
2023/01/12 09:15:40;;;;;;;;;;;;;;;-7.90;31.50;99327.75;6295138;28;19924;-67
2023/01/12 09:18:42;;;;;;;;;;;;;;;-7.95;31.45;99319.03;6293899;28;19920;-68
2023/01/12 09:21:43;;;;;;;;;;;;;;;-7.34;31.55;99326.06;6298829;28;19932;-68
2023/01/12 09:24:45;;;;;;;;;;;;;;;-5.04;28.78;99330.25;6298171;28;19989;-68
2023/01/12 09:27:46;;;;;;;;;;;;;;;-2.01;25.23;99307.66;6298380;28;20390;-67
2023/01/12 09:30:47;;;;;;;;;;;;;;;-2.26;24.18;99317.41;6297698;28;19931;-68
2023/01/12 09:33:52;;;;;;;;;;;;;;;-3.94;24.64;99310.00;6299342;28;20328;-68
2023/01/12 09:36:55;;;;;;;;;;;;;;;-5.56;26.43;99306.13;6298214;28;19924;-68
2023/01/12 09:39:59;;;;;;;;;;;;;;;-6.58;27.85;99287.56;6298982;28;19931;-69
2023/01/12 09:49:51;;;;;;;;;;;;;;;-6.87;28.42;99294.91;6298741;28;19931;-67
2023/01/12 09:52:55;;;;;;;;;;;;;;;-5.51;27.68;99286.66;6298801;28;19955;-67
2023/01/12 09:56:01;;;;;;;;;;;;;;;-5.07;26.48;99274.53;6300156;28;20347;-68
2023/01/12 09:59:11;;;;;;;;;;;;;;;-4.81;26.16;99266.88;6299028;28;20386;-68
2023/01/12 10:02:14;;;;;;;;;;;;;;;-5.17;26.43;99267.34;6298842;28;19924;-68
2023/01/12 10:05:36;;;;;;;;;;;;;;;-5.44;26.33;99265.50;6298717;28;20019;-68
2023/01/12 10:08:48;;;;;;;;;;;;;;;-5.39;26.71;99268.25;6298625;28;19925;-68
2023/01/12 10:12:02;;;;;;;;;;;;;;;-4.55;26.32;99266.06;6298443;28;20382;-69
2023/01/12 10:15:05;;;;;;;;;;;;;;;-4.78;25.96;99261.88;6298476;28;20302;-68
2023/01/12 10:18:18;;;;;;;;;;;;;;;-5.16;26.66;99261.38;6298453;28;19924;-67
2023/01/12 10:21:22;;;;;;;;;;;;;;;-5.50;26.95;99261.84;6298225;28;19924;-68
2023/01/12 10:24:24;;;;;;;;;;;;;;;-6.03;27.79;99259.03;6297699;28;19924;-69
2023/01/12 10:27:25;;;;;;;;;;;;;;;-6.60;28.35;99264.44;6298201;28;20408;-68
2023/01/12 10:30:33;;;;;;;;;;;;;;;-7.46;29.52;99308.50;6297921;28;19924;-67
2023/01/12 10:33:40;;;;;;;;;;;;;;;-8.04;30.09;99308.34;6297642;28;19925;-68
2023/01/12 10:36:46;;;;;;;;;;;;;;;-8.01;30.69;99323.81;6280106;28;19963;-68
2023/01/12 10:39:51;;;;;;;;;;;;;;;-8.56;31.01;99331.41;6296727;28;20286;-68
2023/01/12 10:46:20;;;;;;;;;;;;;;;-8.81;32.01;99343.78;6297469;28;20297;-68
2023/01/12 10:49:25;;;;;;;;;;;;;;;-8.99;32.88;99339.44;6297728;28;20397;-68
2023/01/12 10:52:34;;;;;;;;;;;;;;;-9.14;33.11;99330.19;6297320;28;19920;-68
2023/01/12 10:55:38;;;;;;;;;;;;;;;-9.32;33.36;99329.22;6297132;28;20469;-67
2023/01/12 10:58:43;;;;;;;;;;;;;;;-9.49;33.77;99316.44;6296999;28;19925;-68
2023/01/12 11:01:44;;;;;;;;;;;;;;;-9.16;33.55;99308.81;6297087;28;19924;-67
2023/01/12 11:04:51;;;;;;;;;;;;;;;-9.16;33.65;99306.28;6296867;28;19924;-68
2023/01/12 11:07:52;;;;;;;;;;;;;;;-9.34;33.50;99267.97;6297014;28;19932;-69
2023/01/12 11:10:53;;;;;;;;;;;;;;;-9.47;33.75;99246.84;6296589;28;20340;-67
2023/01/12 11:13:58;;;;;;;;;;;;;;;-9.46;33.87;99243.50;6297118;28;20023;-67
2023/01/12 11:17:25;;;;;;;;;;;;;;;-9.52;34.57;99233.84;6296634;28;20386;-68
2023/01/12 11:20:38;;;;;;;;;;;;;;;-9.51;34.57;99233.94;6258729;28;20449;-67
2023/01/12 11:23:46;;;;;;;;;;;;;;;-9.56;33.88;99253.22;6296022;28;19925;-68
2023/01/12 11:26:53;;;;;;;;;;;;;;;-9.74;33.69;99248.03;6296669;28;20277;-69
2023/01/12 11:30:06;;;;;;;;;;;;;;;-10.01;34.05;99249.97;6296437;28;20540;-69
2023/01/12 11:33:11;;;;;;;;;;;;;;;-10.28;34.65;99269.72;6295395;28;19928;-67
2023/01/12 11:36:19;;;;;;;;;;;;;;;-10.05;33.70;99286.22;6296277;28;20389;-67
2023/01/12 11:39:23;;;;;;;;;;;;;;;-10.21;33.75;99304.03;6278197;28;19924;-68
2023/01/12 11:45:52;;;;;;;;;;;;;;;-10.60;34.32;99335.75;6296190;28;19924;-67
2023/01/12 11:49:09;;;;;;;;;;;;;;;-10.62;34.23;99338.22;6296039;28;19924;-68
2023/01/12 11:52:14;;;;;;;;;;;;;;;-10.53;33.44;99331.13;6278303;28;20386;-69
2023/01/12 11:55:26;;;;;;;;;;;;;;;-10.72;33.93;99313.03;6296122;28;20313;-69
2023/01/12 11:58:27;;;;;;;;;;;;;;;-10.76;33.69;99313.63;6295865;28;20019;-68
2023/01/12 12:01:34;;;;;;;;;;;;;;;-10.99;33.90;99318.25;6295782;28;19946;-69
2023/01/12 12:04:37;;;;;;;;;;;;;;;-11.18;34.45;99302.69;6295512;28;20316;-68
2023/01/12 12:07:38;;;;;;;;;;;;;;;-11.43;34.86;99303.78;6293650;28;19932;-69
2023/01/12 12:10:44;;;;;;;;;;;;;;;-11.37;35.01;99299.06;6294061;28;19924;-68
2023/01/12 12:13:46;;;;;;;;;;;;;;;-11.61;35.05;99317.91;6295271;28;19931;-68
2023/01/12 12:16:50;;;;;;;;;;;;;;;-11.70;35.38;99324.97;6294792;28;19931;-68
2023/01/12 12:19:58;;;;;;;;;;;;;;;-11.80;35.74;99326.94;6295599;28;19952;-69
2023/01/12 12:23:28;;;;;;;;;;;;;;;-11.72;35.62;99324.00;6295365;28;19925;-68
2023/01/12 12:26:35;;;;;;;;;;;;;;;-11.81;35.62;99330.25;6276223;28;20402;-70
2023/01/12 12:29:50;;;;;;;;;;;;;;;-11.92;35.96;99321.13;6295184;28;20467;-67
2023/01/12 12:33:08;;;;;;;;;;;;;;;-11.76;35.86;99317.84;6295146;28;19924;-69
2023/01/12 12:36:19;;;;;;;;;;;;;;;-11.77;35.62;99306.81;6278323;28;20019;-69
2023/01/12 12:39:24;;;;;;;;;;;;;;;-11.90;35.99;99293.31;6294559;28;19971;-68
2023/01/12 12:46:00;;;;;;;;;;;;;;;-12.30;37.76;99281.53;6294981;28;19925;-69
2023/01/12 12:49:08;;;;;;;;;;;;;;;-12.36;37.47;99301.44;6295146;28;19935;-68
2023/01/12 12:52:09;;;;;;;;;;;;;;;-12.51;37.83;99310.59;6294173;28;20294;-68
2023/01/12 12:55:11;;;;;;;;;;;;;;;-12.76;38.07;99314.09;6296064;28;19978;-68
2023/01/12 12:58:21;;;;;;;;;;;;;;;-12.41;37.15;99318.03;6299871;28;19932;-69
2023/01/12 13:01:22;;;;;;;;;;;;;;;-12.76;37.09;99316.63;6299812;28;19932;-68
2023/01/12 13:04:41;;;;;;;;;;;;;;;-13.04;37.62;99325.72;6299679;28;19924;-68
2023/01/12 13:07:50;;;;;;;;;;;;;;;-12.65;36.90;99340.16;6281421;28;19973;-69
2023/01/12 13:10:57;;;;;;;;;;;;;;;-12.92;37.69;99336.66;6299789;28;19959;-68
2023/01/12 13:14:15;;;;;;;;;;;;;;;-12.82;37.25;99344.13;6299546;28;19924;-69
2023/01/12 13:17:21;;;;;;;;;;;;;;;-13.00;37.65;99342.88;6281564;28;19924;-69
2023/01/12 13:20:35;;;;;;;;;;;;;;;-12.95;37.50;99339.00;6299328;28;19925;-69
2023/01/12 13:23:40;;;;;;;;;;;;;;;-12.95;37.39;99336.47;6298367;28;19935;-69
2023/01/12 13:26:44;;;;;;;;;;;;;;;-13.04;37.78;99335.88;6299170;28;19925;-67
2023/01/12 13:29:49;;;;;;;;;;;;;;;-13.21;38.15;99332.19;6299220;28;20022;-68
2023/01/12 13:33:01;;;;;;;;;;;;;;;-13.26;38.44;99328.50;6298100;28;19932;-68
2023/01/12 13:36:04;;;;;;;;;;;;;;;-13.25;38.37;99320.94;6299220;28;19924;-68
2023/01/12 13:39:11;;;;;;;;;;;;;;;-13.11;37.87;99349.75;6298832;28;19924;-68
2023/01/12 13:45:38;;;;;;;;;;;;;;;-13.08;36.74;99354.16;6298129;28;19931;-68
2023/01/12 13:48:42;;;;;;;;;;;;;;;-13.01;36.37;99346.19;6298029;28;20046;-67
2023/01/12 13:51:52;;;;;;;;;;;;;;;-12.97;35.87;99359.16;6297588;28;19925;-68
2023/01/12 13:54:53;;;;;;;;;;;;;;;-13.02;35.65;99349.50;6298725;28;20275;-68
2023/01/12 13:57:55;;;;;;;;;;;;;;;-13.00;34.87;99347.94;6298853;28;19928;-68
2023/01/12 14:01:01;;;;;;;;;;;;;;;-13.06;34.58;99347.53;6297779;28;20405;-70
2023/01/12 14:04:10;;;;;;;;;;;;;;;-12.90;34.05;99342.72;6298529;28;19924;-68
2023/01/12 14:07:19;;;;;;;;;;;;;;;-12.83;33.73;99344.88;6297383;28;19931;-68
2023/01/12 14:10:32;;;;;;;;;;;;;;;-12.86;34.19;99296.50;6298653;28;20392;-68
2023/01/12 14:13:53;;;;;;;;;;;;;;;-12.75;34.13;99294.69;6298370;28;20309;-68
2023/01/12 14:20:21;;;;;;;;;;;;;;;-12.79;35.44;99283.47;6298048;28;20322;-67
2023/01/12 14:23:33;;;;;;;;;;;;;;;-12.89;35.65;99271.84;6297817;28;20269;-69
2023/01/12 14:26:37;;;;;;;;;;;;;;;-13.02;36.54;99276.00;6297703;28;20019;-69
2023/01/12 14:29:40;;;;;;;;;;;;;;;-13.27;36.97;99282.03;6297440;28;19925;-68
2023/01/12 14:32:42;;;;;;;;;;;;;;;-13.08;36.79;99273.06;6297316;28;19924;-68
2023/01/12 14:35:45;;;;;;;;;;;;;;;-13.23;36.92;99281.41;6297586;28;20012;-68
2023/01/12 14:38:47;;;;;;;;;;;;;;;-13.21;37.25;99284.94;6278991;28;19928;-68
2023/01/12 14:48:54;;;;;;;;;;;;;;;-13.17;37.14;99307.16;6297416;28;19920;-69
2023/01/12 14:51:56;;;;;;;;;;;;;;;-13.00;35.78;99277.88;6297452;28;19928;-68
2023/01/12 14:55:13;;;;;;;;;;;;;;;-12.97;35.37;99303.41;6279169;28;19932;-69
2023/01/12 14:58:21;;;;;;;;;;;;;;;-12.92;35.52;99283.44;6297554;28;19924;-69
2023/01/12 15:01:36;;;;;;;;;;;;;;;-12.94;36.12;99257.09;6297440;28;19924;-68
2023/01/12 15:04:52;;;;;;;;;;;;;;;-13.08;36.33;99243.53;6297179;28;19987;-68
2023/01/12 15:08:01;;;;;;;;;;;;;;;-12.98;36.33;99245.03;6296516;28;20510;-68
2023/01/12 15:11:09;;;;;;;;;;;;;;;-12.93;36.70;99248.75;6297040;28;20385;-69
2023/01/12 15:14:19;;;;;;;;;;;;;;;-12.96;37.12;99244.34;6297024;28;19924;-68
2023/01/12 15:27:47;;;;;;;;;;;;;;;-12.94;37.06;99227.56;6296056;28;19924;-69
2023/01/12 15:30:54;;;;;;;;;;;;;;;-12.88;37.29;99227.09;6296304;28;19931;-70
2023/01/12 15:33:55;;;;;;;;;;;;;;;-12.80;37.34;99238.59;6295456;28;19924;-69
2023/01/12 15:36:59;;;;;;;;;;;;;;;-12.86;37.69;99240.75;6278986;28;20370;-68
2023/01/12 15:40:05;;;;;;;;;;;;;;;-12.71;37.37;99256.06;6278844;28;19925;-67
2023/01/12 15:43:16;;;;;;;;;;;;;;;-12.93;37.96;99263.97;6295521;28;20480;-69
2023/01/12 15:46:18;;;;;;;;;;;;;;;-12.75;37.72;99275.28;6296352;28;20404;-68
2023/01/12 15:49:22;;;;;;;;;;;;;;;-12.86;38.39;99280.44;6296370;28;20309;-68
2023/01/12 15:52:25;;;;;;;;;;;;;;;-12.89;38.65;99273.50;6294092;28;19924;-68
2023/01/12 15:55:34;;;;;;;;;;;;;;;-13.00;38.52;99266.84;6295265;28;20402;-69
2023/01/12 15:58:40;;;;;;;;;;;;;;;-12.83;37.91;99255.28;6296348;28;20393;-67
2023/01/12 16:01:43;;;;;;;;;;;;;;;-12.84;37.85;99251.88;6295171;28;19924;-69
2023/01/12 16:04:44;;;;;;;;;;;;;;;-12.75;37.89;99218.63;6295809;28;20321;-69
2023/01/12 16:07:46;;;;;;;;;;;;;;;-12.64;38.24;99226.94;6295014;28;19977;-68
2023/01/12 16:14:10;;;;;;;;;;;;;;;-12.60;37.69;99211.97;6296031;28;19924;-69
2023/01/12 16:17:13;;;;;;;;;;;;;;;-12.61;38.53;99224.59;6295828;28;19931;-68
2023/01/12 16:20:18;;;;;;;;;;;;;;;-12.61;38.05;99216.97;6296009;28;20309;-68
2023/01/12 16:23:19;;;;;;;;;;;;;;;-12.69;39.00;99224.97;6295313;28;19928;-70
2023/01/12 16:26:21;;;;;;;;;;;;;;;-12.70;39.30;99237.56;6294782;28;20295;-69
2023/01/12 16:29:24;;;;;;;;;;;;;;;-12.42;39.27;99240.19;6296678;28;19924;-70
2023/01/12 16:32:59;;;;;;;;;;;;;;;-12.28;38.91;99233.44;6300699;28;19924;-70
2023/01/12 16:36:14;;;;;;;;;;;;;;;-12.41;38.26;99236.84;6281952;28;19931;-70
2023/01/12 16:39:37;;;;;;;;;;;;;;;-12.78;39.05;99204.09;6300576;28;19925;-69
2023/01/12 16:43:10;;;;;;;;;;;;;;;-12.64;38.96;99201.56;6284040;28;20316;-69
2023/01/12 16:46:14;;;;;;;;;;;;;;;-12.27;37.65;99210.69;6299300;28;20394;-69
2023/01/12 16:49:20;;;;;;;;;;;;;;;-12.28;37.36;99203.88;6282725;28;20306;-69
2023/01/12 16:52:24;;;;;;;;;;;;;;;-12.15;37.21;99209.69;6300718;28;19928;-69
2023/01/12 16:55:25;;;;;;;;;;;;;;;-12.40;37.62;99213.22;6299539;28;19924;-70
2023/01/12 16:58:28;;;;;;;;;;;;;;;-12.22;37.35;99204.25;6300422;28;20011;-69
2023/01/12 17:01:32;;;;;;;;;;;;;;;-12.02;36.75;99222.34;6300475;28;19932;-68
2023/01/12 17:04:36;;;;;;;;;;;;;;;-11.90;35.56;99218.00;6300185;28;19924;-69